Time;durP1;ratioP1;P1;durP2;ratioP2;P2;SDS_P1;SDS_P2;PMS_P1;PMS_P2;Temp;Humidity;BMP_temperature;BMP_pressure;BME280_temperature;BME280_humidity;BME280_pressure;Samples;Min_cycle;Max_cycle;Signal;HPM_P1;HPM_P2
2023/08/06 00:00:10;;;;;;;12.68;5.70;;;;;;;19.68;86.88;94157.97;5013131;28;20075;-86
2023/08/06 00:02:36;;;;;;;11.43;5.47;;;;;;;19.12;88.29;94025.88;5015038;28;20134;-86
2023/08/06 00:05:03;;;;;;;6.95;4.00;;;;;;;19.74;84.20;94099.28;4953577;28;20561;-86
2023/08/06 00:07:28;;;;;;;7.05;3.83;;;;;;;20.30;84.12;94150.59;4937053;28;20074;-86
2023/08/06 00:09:54;;;;;;;8.82;4.93;;;;;;;20.28;86.27;94118.69;4932898;28;20063;-86
2023/08/06 00:12:19;;;;;;;25.95;6.80;;;;;;;20.47;91.05;94128.63;4934754;29;20040;-86
2023/08/06 00:14:45;;;;;;;10.10;5.38;;;;;;;19.72;87.29;94018.94;4932666;29;20031;-86
2023/08/06 00:17:10;;;;;;;8.00;4.13;;;;;;;20.94;82.05;94184.78;4933385;29;20093;-86
2023/08/06 00:19:36;;;;;;;8.65;3.72;;;;;;;20.45;82.43;94073.56;4932816;29;20173;-86
2023/08/06 00:22:01;;;;;;;5.88;3.67;;;;;;;21.08;82.12;94147.22;4935373;29;20036;-86
2023/08/06 00:24:27;;;;;;;5.28;3.72;;;;;;;21.07;84.61;94128.72;4933141;29;20118;-86
2023/08/06 00:26:53;;;;;;;10.48;3.90;;;;;;;21.08;81.15;94155.31;4925298;29;20036;-86
2023/08/06 00:35:13;;;;;;;7.93;3.80;;;;;;;20.32;79.28;93992.97;5098084;22;20068;-84
2023/08/06 00:37:39;;;;;;;7.63;3.58;;;;;;;21.24;77.17;94151.72;4956773;28;20046;-85
2023/08/06 00:40:31;;;;;;;6.60;3.55;;;;;;;20.72;78.72;94043.56;4967218;22;20065;-82
2023/08/06 00:42:56;;;;;;;8.38;4.20;;;;;;;21.03;77.49;94066.69;5032545;28;20065;-81
2023/08/06 00:45:23;;;;;;;7.28;5.47;;;;;;;21.11;75.44;94138.44;5041945;28;20071;-83
2023/08/06 00:47:48;;;;;;;12.13;6.22;;;;;;;21.24;78.50;94120.13;5039425;28;20079;-83
2023/08/06 00:50:14;;;;;;;8.63;5.10;;;;;;;21.25;77.46;94113.59;5036269;28;20120;-83
2023/08/06 00:52:40;;;;;;;9.18;6.03;;;;;;;21.31;76.86;94119.44;5036527;28;20021;-83
2023/08/06 00:55:06;;;;;;;14.95;7.13;;;;;;;21.53;77.53;94127.41;5036397;28;20033;-82
2023/08/06 00:57:32;;;;;;;9.60;6.32;;;;;;;21.30;76.90;94099.00;5034430;28;20045;-82
2023/08/06 00:59:58;;;;;;;11.27;5.45;;;;;;;21.07;75.93;94085.59;5040748;28;20056;-82
2023/08/06 01:02:23;;;;;;;10.55;6.03;;;;;;;21.57;77.08;94119.38;5040861;28;20025;-82
2023/08/06 01:04:49;;;;;;;7.53;6.22;;;;;;;21.55;77.13;94097.38;5042380;28;20037;-82
2023/08/06 01:07:30;;;;;;;9.35;5.78;;;;;;;21.73;76.94;94097.59;5043316;28;20041;-82
2023/08/06 01:10:40;;;;;;;11.57;7.63;;;;;;;21.74;77.72;94067.50;5043379;28;20033;-82
2023/08/06 01:13:17;;;;;;;9.48;6.93;;;;;;;21.69;76.61;94088.66;5044407;28;20288;-83
2023/08/06 01:15:47;;;;;;;10.90;6.63;;;;;;;21.61;74.66;94085.13;5046716;28;20033;-82
2023/08/06 01:18:13;;;;;;;10.43;6.68;;;;;;;21.40;76.19;94069.47;5047928;28;20187;-82
2023/08/06 01:20:38;;;;;;;13.38;7.13;;;;;;;21.40;75.23;94096.44;5050818;28;20049;-82
2023/08/06 01:23:04;;;;;;;8.35;5.97;;;;;;;21.32;75.34;94073.22;5052566;28;20085;-82
2023/08/06 01:25:50;;;;;;;7.78;5.90;;;;;;;21.68;77.76;94073.63;5052041;28;20053;-82
2023/08/06 01:28:33;;;;;;;8.75;6.80;;;;;;;21.63;76.50;94079.34;5052275;28;20026;-82
2023/08/06 01:31:05;;;;;;;8.50;5.82;;;;;;;21.47;75.04;94076.88;5054255;28;20025;-82
2023/08/06 01:33:34;;;;;;;7.95;5.43;;;;;;;21.16;77.14;94078.00;5056564;28;20107;-82
2023/08/06 01:36:01;;;;;;;8.93;6.15;;;;;;;21.22;78.40;94048.81;5057077;28;20125;-81
2023/08/06 01:38:28;;;;;;;9.75;6.18;;;;;;;21.12;78.82;94079.91;5056355;28;20018;-82
2023/08/06 01:40:53;;;;;;;10.30;5.43;;;;;;;21.00;76.95;94037.75;5042326;28;20058;-81
2023/08/06 01:43:19;;;;;;;6.10;4.88;;;;;;;20.85;77.20;94008.31;4994974;28;20027;-82
2023/08/06 01:45:44;;;;;;;7.30;4.22;;;;;;;21.25;76.16;94043.50;4991925;28;20027;-78
2023/08/06 01:48:10;;;;;;;7.53;3.80;;;;;;;20.91;76.01;94031.88;4971027;28;20100;-78
2023/08/06 01:50:35;;;;;;;8.07;4.60;;;;;;;21.07;76.19;94015.50;4970652;28;20027;-79
2023/08/06 01:53:01;;;;;;;6.30;4.15;;;;;;;21.01;76.07;94073.59;4970636;28;20252;-78
2023/08/06 01:55:26;;;;;;;7.88;4.53;;;;;;;20.68;77.57;94050.03;4971147;28;20039;-78
2023/08/06 01:57:52;;;;;;;7.47;4.80;;;;;;;20.84;78.52;94058.72;4971814;28;20027;-78
2023/08/06 02:00:17;;;;;;;7.05;4.75;;;;;;;21.08;80.70;94079.84;4972282;28;20064;-78
2023/08/06 02:02:42;;;;;;;7.35;4.97;;;;;;;20.55;77.59;94068.34;4969597;28;20027;-78
2023/08/06 02:05:08;;;;;;;6.13;4.57;;;;;;;20.75;78.49;94056.28;4972119;28;20042;-78
2023/08/06 02:07:33;;;;;;;7.60;4.40;;;;;;;20.64;78.31;94028.44;4970158;28;20072;-78
2023/08/06 02:09:59;;;;;;;10.07;4.95;;;;;;;20.08;78.55;93981.81;4971064;28;20141;-78
2023/08/06 02:12:24;;;;;;;9.13;5.07;;;;;;;20.46;78.70;94027.41;4970112;28;20030;-78
2023/08/06 02:14:49;;;;;;;8.93;4.47;;;;;;;20.41;78.51;93992.72;4969780;28;20031;-79
2023/08/06 02:17:15;;;;;;;13.70;5.72;;;;;;;20.91;80.21;94047.25;4971674;28;20034;-78
2023/08/06 02:19:43;;;;;;;7.97;4.70;;;;;;;20.22;79.83;94036.66;4971719;28;20030;-79
2023/08/06 02:22:08;;;;;;;7.25;4.05;;;;;;;19.83;81.61;94046.03;4954598;28;20126;-79
2023/08/06 02:24:33;;;;;;;10.38;4.88;;;;;;;19.93;84.74;94051.56;4969334;28;20035;-79
2023/08/06 02:26:59;;;;;;;10.23;4.43;;;;;;;19.89;83.13;94077.66;4969694;28;20038;-79
2023/08/06 02:29:24;;;;;;;9.77;4.70;;;;;;;19.69;83.37;94088.78;4970629;28;20477;-80
2023/08/06 02:31:50;;;;;;;7.90;5.15;;;;;;;19.70;85.71;94056.16;4969775;28;20026;-79
2023/08/06 02:34:15;;;;;;;9.95;4.72;;;;;;;19.50;83.42;94012.41;4969305;28;20167;-80
2023/08/06 02:36:41;;;;;;;16.70;5.85;;;;;;;19.55;87.73;94009.41;4968989;28;20058;-80
2023/08/06 02:39:06;;;;;;;125.75;11.95;;;;;;;19.37;88.67;94066.69;4970493;28;20039;-79
2023/08/06 02:41:32;;;;;;;156.63;15.55;;;;;;;19.22;92.13;94079.81;4969284;28;20050;-79
2023/08/06 02:43:57;;;;;;;39.63;7.85;;;;;;;19.39;93.55;94096.66;4970435;28;20031;-82
2023/08/06 02:46:22;;;;;;;9.43;5.40;;;;;;;19.07;93.53;94077.22;4969957;28;20384;-81
2023/08/06 02:48:48;;;;;;;11.38;5.35;;;;;;;19.00;93.73;94083.19;4968767;28;20069;-81
2023/08/06 02:51:13;;;;;;;9.98;5.28;;;;;;;19.23;95.12;94089.44;4969037;28;20031;-81
2023/08/06 02:53:39;;;;;;;10.65;5.35;;;;;;;19.22;97.53;94065.63;4968796;28;20034;-81
2023/08/06 02:56:04;;;;;;;11.88;5.95;;;;;;;19.58;99.71;94067.09;4971978;28;20160;-83
2023/08/06 02:58:30;;;;;;;9.93;6.18;;;;;;;19.71;98.96;94059.63;4981175;28;20042;-82
2023/08/06 03:01:00;;;;;;;13.02;6.07;;;;;;;19.58;99.14;94008.72;4986751;28;20058;-82
2023/08/06 03:03:25;;;;;;;12.00;6.25;;;;;;;20.03;98.17;94042.13;4976824;28;20031;-82
2023/08/06 03:05:53;;;;;;;10.43;6.35;;;;;;;20.00;97.18;94024.78;4975149;28;20041;-82
2023/08/06 03:08:22;;;;;;;11.38;6.38;;;;;;;20.35;96.59;94051.50;4972384;28;20034;-82
2023/08/06 03:10:47;;;;;;;20.80;6.47;;;;;;;19.74;93.61;93948.63;4976348;28;20035;-82
2023/08/06 03:13:13;;;;;;;11.75;5.70;;;;;;;20.43;93.37;93995.84;4983808;28;20027;-81
2023/08/06 03:15:38;;;;;;;11.73;4.90;;;;;;;20.38;90.93;93991.53;4975359;28;20539;-82
2023/08/06 03:18:05;;;;;;;11.15;5.18;;;;;;;19.92;88.15;93973.88;4971440;28;20216;-82
2023/08/06 03:20:32;;;;;;;7.22;4.70;;;;;;;20.04;86.12;94032.91;4973516;28;20591;-82
2023/08/06 03:22:57;;;;;;;13.25;4.78;;;;;;;19.71;90.08;93966.28;4972850;28;20039;-82
2023/08/06 03:25:23;;;;;;;10.02;5.10;;;;;;;19.62;89.02;93945.00;4977348;28;20045;-82
2023/08/06 03:27:48;;;;;;;8.00;4.88;;;;;;;19.91;88.37;93993.88;4974832;28;20030;-82
2023/08/06 03:30:14;;;;;;;9.77;5.20;;;;;;;20.18;90.09;94048.50;4975022;28;20031;-82
2023/08/06 03:32:39;;;;;;;17.63;5.55;;;;;;;20.18;90.50;94070.03;4973022;28;20064;-83
2023/08/06 03:35:05;;;;;;;13.90;5.82;;;;;;;20.19;90.08;94069.69;4973178;28;20043;-82
2023/08/06 03:37:31;;;;;;;14.07;6.50;;;;;;;20.57;91.35;94093.00;4972297;28;20038;-82
2023/08/06 03:39:56;;;;;;;8.88;5.53;;;;;;;20.44;90.14;94072.81;4970582;28;20126;-82
2023/08/06 03:42:22;;;;;;;9.23;5.10;;;;;;;20.59;89.07;94057.63;4970399;28;20082;-82
2023/08/06 03:44:47;;;;;;;7.43;5.15;;;;;;;20.56;89.35;94040.25;4975362;28;20043;-83
2023/08/06 03:47:13;;;;;;;8.93;5.47;;;;;;;20.53;89.01;94022.13;4971740;28;20045;-83
2023/08/06 03:49:39;;;;;;;11.45;4.57;;;;;;;20.15;84.28;93979.22;4969152;28;20039;-83
2023/08/06 03:52:05;;;;;;;9.48;5.40;;;;;;;20.01;86.83;94014.78;4971085;28;20542;-82
2023/08/06 03:54:30;;;;;;;7.82;4.50;;;;;;;20.20;85.33;94052.41;4969430;28;20325;-83
2023/08/06 03:56:56;;;;;;;5.97;4.47;;;;;;;19.92;86.53;94025.00;4969309;28;20507;-82
2023/08/06 03:59:22;;;;;;;8.20;4.22;;;;;;;19.99;85.66;94057.41;4970420;28;20043;-82
2023/08/06 04:01:47;;;;;;;7.97;4.40;;;;;;;20.18;86.63;94056.59;4969089;28;20386;-82
2023/08/06 04:04:12;;;;;;;9.40;4.53;;;;;;;20.29;86.76;94052.91;4968943;28;20027;-82
2023/08/06 04:06:38;;;;;;;6.07;4.28;;;;;;;20.69;88.05;94103.56;4968856;28;20050;-82
2023/08/06 04:09:03;;;;;;;11.00;5.05;;;;;;;20.56;88.10;94066.41;4969551;28;20042;-82
2023/08/06 04:11:29;;;;;;;9.43;5.22;;;;;;;20.79;89.50;94076.00;4970695;28;20469;-84
2023/08/06 04:13:55;;;;;;;11.07;5.30;;;;;;;20.75;87.91;94061.69;4971088;28;20043;-84
2023/08/06 04:16:21;;;;;;;10.02;5.90;;;;;;;21.25;88.11;94110.91;4972293;28;20031;-84
2023/08/06 04:18:46;;;;;;;7.70;5.15;;;;;;;21.06;88.34;94065.16;4970902;28;20035;-84
2023/08/06 04:21:12;;;;;;;9.85;4.40;;;;;;;21.43;86.32;94086.84;4972960;28;20034;-84
2023/08/06 04:23:37;;;;;;;10.77;4.18;;;;;;;21.55;84.36;94087.38;4973226;28;20031;-84
2023/08/06 04:26:03;;;;;;;4.55;3.42;;;;;;;21.27;82.72;94057.38;4970861;28;20184;-83
2023/08/06 04:28:28;;;;;;;9.18;3.50;;;;;;;21.44;79.50;94080.28;4969679;28;20046;-83
2023/08/06 04:30:54;;;;;;;6.43;3.70;;;;;;;21.58;80.20;94074.31;4969486;28;20088;-83
2023/08/06 04:33:20;;;;;;;4.43;3.65;;;;;;;21.47;81.18;94071.47;4971281;28;20049;-83
2023/08/06 04:35:46;;;;;;;5.80;4.13;;;;;;;21.31;81.24;94052.03;4973876;28;20041;-83
2023/08/06 04:38:11;;;;;;;6.28;4.30;;;;;;;21.26;79.49;94057.75;4976724;28;20283;-83
2023/08/06 04:40:37;;;;;;;6.13;4.25;;;;;;;21.13;81.10;94049.09;4976225;28;20035;-84
2023/08/06 04:43:02;;;;;;;9.90;4.28;;;;;;;20.91;82.13;94034.56;4977225;28;20129;-83
2023/08/06 04:45:28;;;;;;;8.05;5.05;;;;;;;21.11;83.76;94029.81;4976141;28;20405;-83
2023/08/06 04:47:53;;;;;;;4.60;4.03;;;;;;;21.31;81.50;94047.41;4976447;28;20035;-83
2023/08/06 04:50:22;;;;;;;11.20;4.63;;;;;;;21.34;83.13;94027.81;4959062;28;20114;-82
2023/08/06 04:52:47;;;;;;;7.38;4.95;;;;;;;21.13;83.58;93968.22;4976249;28;20046;-83
2023/08/06 04:55:13;;;;;;;6.75;4.40;;;;;;;21.33;82.80;93982.31;4977541;28;20043;-83
2023/08/06 04:57:38;;;;;;;11.23;4.47;;;;;;;21.19;81.61;93988.34;4981409;28;20152;-83
2023/08/06 05:00:05;;;;;;;7.72;4.38;;;;;;;21.03;80.67;93976.97;4979922;28;20103;-83
2023/08/06 05:02:32;;;;;;;7.00;4.80;;;;;;;21.03;80.83;93998.53;4977800;28;20026;-83
2023/08/06 05:04:58;;;;;;;8.48;4.18;;;;;;;20.51;81.71;93914.00;4977901;28;20038;-84
2023/08/06 05:07:23;;;;;;;7.93;5.35;;;;;;;20.21;82.01;93907.81;4984788;28;20054;-83
2023/08/06 05:09:49;;;;;;;7.05;5.68;;;;;;;20.97;82.47;94016.94;4986661;28;20027;-83
2023/08/06 05:12:14;;;;;;;7.55;4.55;;;;;;;19.73;83.02;93834.91;4983510;28;20039;-83
2023/08/06 05:14:40;;;;;;;7.57;4.32;;;;;;;21.07;82.69;94016.28;4984951;28;20070;-82
2023/08/06 05:17:05;;;;;;;4.57;3.42;;;;;;;20.56;80.81;93964.84;4977218;28;20034;-79
2023/08/06 05:19:30;;;;;;;7.70;3.72;;;;;;;20.68;82.30;94001.53;4971415;28;20557;-79
2023/08/06 05:21:56;;;;;;;7.22;3.65;;;;;;;20.69;82.32;93998.50;4970978;28;20039;-78
2023/08/06 05:24:21;;;;;;;4.35;3.92;;;;;;;20.64;82.50;94009.59;4972443;28;20117;-78
2023/08/06 05:26:47;;;;;;;5.28;4.57;;;;;;;20.78;83.24;94009.78;4971255;28;20500;-79
2023/08/06 05:29:13;;;;;;;9.10;4.03;;;;;;;20.65;82.05;93978.81;4970696;28;20127;-79
2023/08/06 05:31:38;;;;;;;7.50;5.13;;;;;;;20.78;82.69;94004.38;4970298;28;20050;-78
2023/08/06 05:34:04;;;;;;;8.60;6.32;;;;;;;20.62;81.76;94040.72;4972046;28;20444;-79
2023/08/06 05:36:29;;;;;;;9.15;6.40;;;;;;;20.56;84.09;94029.50;4972192;28;20043;-78
2023/08/06 05:38:58;;;;;;;11.02;7.10;;;;;;;20.47;83.83;93998.56;4971606;28;20034;-78
2023/08/06 05:41:23;;;;;;;12.20;7.72;;;;;;;20.39;83.81;94009.25;4954251;28;20051;-79
2023/08/06 05:43:49;;;;;;;18.75;10.57;;;;;;;20.42;83.39;94022.00;4970052;28;20095;-78
2023/08/06 05:46:14;;;;;;;15.57;8.63;;;;;;;20.66;86.21;94003.84;4970989;28;20035;-78
2023/08/06 05:48:39;;;;;;;10.25;6.60;;;;;;;20.66;85.26;93996.53;4970270;28;20065;-79
2023/08/06 05:51:06;;;;;;;9.15;6.35;;;;;;;20.36;84.06;93923.81;4970240;28;20516;-79
2023/08/06 05:53:31;;;;;;;10.80;7.13;;;;;;;20.33;85.04;93943.41;4970088;28;20065;-79
2023/08/06 05:55:57;;;;;;;11.80;6.20;;;;;;;20.90;83.08;94021.47;4971636;28;20511;-78
2023/08/06 05:58:24;;;;;;;8.27;5.70;;;;;;;20.87;83.86;93992.56;4970478;28;20047;-78
2023/08/06 06:00:49;;;;;;;14.63;6.20;;;;;;;20.97;83.38;94013.47;4972391;28;20038;-79
2023/08/06 06:03:15;;;;;;;9.75;5.68;;;;;;;21.00;82.53;93997.34;4970756;28;20031;-78
2023/08/06 06:05:40;;;;;;;11.18;4.57;;;;;;;21.01;81.04;93993.50;4970362;28;20035;-78
2023/08/06 06:08:06;;;;;;;8.50;4.38;;;;;;;20.96;78.99;94033.47;4970695;28;20420;-78
2023/08/06 06:10:31;;;;;;;7.45;3.85;;;;;;;21.03;79.24;94015.47;4972406;28;20053;-78
2023/08/06 06:12:56;;;;;;;4.07;3.15;;;;;;;20.66;78.60;93987.69;4970747;28;20114;-78
2023/08/06 06:15:22;;;;;;;6.25;3.70;;;;;;;20.92;78.73;94044.22;4970285;28;20124;-78
2023/08/06 06:17:47;;;;;;;4.15;2.95;;;;;;;20.95;77.83;94040.78;4970410;28;20035;-78
2023/08/06 06:20:13;;;;;;;7.55;2.92;;;;;;;20.94;78.32;94055.41;4970580;28;20045;-78
2023/08/06 06:22:38;;;;;;;5.43;2.80;;;;;;;20.51;75.08;94029.81;4970769;28;20461;-78
2023/08/06 06:25:04;;;;;;;11.05;2.78;;;;;;;20.93;77.13;94069.25;4970259;28;20397;-78
2023/08/06 06:27:30;;;;;;;10.77;3.53;;;;;;;20.56;77.62;94004.47;4970749;28;20041;-79
2023/08/06 06:29:55;;;;;;;7.93;3.13;;;;;;;20.90;77.30;94059.22;4971552;28;20488;-79
2023/08/06 06:32:22;;;;;;;5.10;2.55;;;;;;;20.61;78.01;94055.31;4970406;28;20034;-79
2023/08/06 06:34:47;;;;;;;9.77;3.13;;;;;;;20.77;77.65;94082.88;4970364;28;20045;-79
2023/08/06 06:37:13;;;;;;;5.13;2.83;;;;;;;20.60;76.99;94059.16;4971165;28;20539;-78
2023/08/06 06:39:38;;;;;;;5.55;2.65;;;;;;;20.56;77.13;94082.59;4971719;28;20039;-79
2023/08/06 06:42:04;;;;;;;5.65;2.72;;;;;;;20.73;76.39;94082.84;4971778;28;20050;-78
2023/08/06 06:44:29;;;;;;;3.97;2.50;;;;;;;20.60;75.42;94059.94;4971664;28;20057;-78
2023/08/06 06:46:55;;;;;;;10.60;2.42;;;;;;;20.78;75.33;94097.91;4980251;28;20076;-81
2023/08/06 06:49:20;;;;;;;3.72;2.50;;;;;;;20.71;75.30;94097.81;4983331;28;20034;-81
2023/08/06 06:51:46;;;;;;;3.40;2.25;;;;;;;20.83;74.63;94091.44;4981851;28;20080;-81
2023/08/06 06:54:11;;;;;;;5.50;2.20;;;;;;;20.86;72.53;94117.66;4982074;28;20148;-81
2023/08/06 06:56:37;;;;;;;9.38;2.83;;;;;;;20.92;73.24;94113.50;4981568;28;20042;-81
2023/08/06 06:59:02;;;;;;;7.72;3.03;;;;;;;20.70;71.85;94093.56;4979922;28;20032;-81
2023/08/06 07:01:28;;;;;;;4.95;2.67;;;;;;;20.77;72.18;94115.22;4982296;28;20058;-81
2023/08/06 07:03:53;;;;;;;5.10;2.53;;;;;;;20.85;72.95;94124.19;4981534;28;20194;-80
2023/08/06 07:06:18;;;;;;;4.10;2.53;;;;;;;20.56;72.13;94069.13;4980698;28;20034;-81
2023/08/06 07:08:45;;;;;;;4.40;3.05;;;;;;;20.96;71.80;94133.97;4980981;28;20053;-81
2023/08/06 07:11:11;;;;;;;5.38;2.70;;;;;;;21.00;71.40;94124.00;4981997;28;20039;-81
2023/08/06 07:13:36;;;;;;;6.53;2.70;;;;;;;21.05;70.98;94117.53;4982391;28;20042;-80
2023/08/06 07:16:02;;;;;;;5.05;2.65;;;;;;;21.06;70.04;94133.34;4981958;28;20049;-82
2023/08/06 07:18:27;;;;;;;13.13;3.58;;;;;;;20.88;69.50;94112.69;4983694;28;20045;-81
2023/08/06 07:20:54;;;;;;;6.53;2.65;;;;;;;20.77;69.79;94091.75;4982388;28;20084;-81
2023/08/06 07:23:25;;;;;;;7.47;3.15;;;;;;;21.08;69.95;94133.75;4984515;28;20054;-81
2023/08/06 07:25:51;;;;;;;5.00;2.90;;;;;;;21.12;69.39;94139.97;4981674;28;20038;-81
2023/08/06 07:28:16;;;;;;;4.32;3.05;;;;;;;21.12;69.15;94133.81;4983541;28;20355;-80
2023/08/06 07:30:44;;;;;;;5.15;2.97;;;;;;;21.12;63.99;94139.97;4981813;28;20042;-81
2023/08/06 07:33:09;;;;;;;4.00;2.95;;;;;;;21.09;65.62;94154.19;4981460;28;20035;-81
2023/08/06 07:35:36;;;;;;;5.97;3.42;;;;;;;21.06;65.55;94149.50;4981412;28;20481;-81
2023/08/06 07:38:02;;;;;;;13.48;3.45;;;;;;;21.07;66.47;94144.91;4981105;28;20125;-80
2023/08/06 07:40:27;;;;;;;6.45;3.42;;;;;;;21.03;64.79;94119.81;4982015;28;20042;-80
2023/08/06 07:42:53;;;;;;;9.32;2.97;;;;;;;21.16;64.68;94129.22;4982129;28;20042;-81
2023/08/06 07:45:18;;;;;;;5.88;3.15;;;;;;;21.49;63.62;94140.09;4981210;28;20039;-80
2023/08/06 07:47:44;;;;;;;8.07;3.30;;;;;;;21.27;62.96;94121.31;4993977;28;20038;-80
2023/08/06 07:50:09;;;;;;;6.72;2.53;;;;;;;21.59;62.80;94141.34;4994524;28;20051;-81
2023/08/06 07:52:35;;;;;;;8.80;3.08;;;;;;;21.48;62.94;94108.88;4994615;28;20047;-81
2023/08/06 07:55:04;;;;;;;6.00;3.63;;;;;;;21.78;62.75;94135.03;4993960;28;20019;-80
2023/08/06 07:57:34;;;;;;;7.18;3.20;;;;;;;21.79;63.15;94136.59;4983565;28;20041;-81
2023/08/06 08:00:00;;;;;;;4.70;3.00;;;;;;;21.73;63.90;94108.38;4983115;28;20073;-80
2023/08/06 08:02:26;;;;;;;4.82;2.70;;;;;;;21.52;64.30;94065.75;4983141;28;20061;-80
2023/08/06 08:04:52;;;;;;;6.43;2.65;;;;;;;21.93;64.38;94102.41;4982956;28;20093;-80
2023/08/06 08:07:18;;;;;;;4.05;2.75;;;;;;;21.76;64.30;94083.34;4979100;28;20043;-80
2023/08/06 08:09:44;;;;;;;4.05;2.35;;;;;;;22.17;63.31;94106.53;4981122;28;20035;-81
2023/08/06 08:12:09;;;;;;;7.03;3.15;;;;;;;22.38;62.47;94130.25;4982043;28;20045;-81
2023/08/06 08:14:37;;;;;;;3.83;2.78;;;;;;;22.35;62.46;94119.41;4980335;28;20058;-81
2023/08/06 08:17:03;;;;;;;7.50;3.00;;;;;;;21.84;62.21;94079.56;4982053;28;20497;-81
2023/08/06 08:19:29;;;;;;;4.70;2.53;;;;;;;22.32;62.28;94131.72;4980779;28;20061;-80
2023/08/06 08:21:55;;;;;;;5.72;3.10;;;;;;;22.44;61.86;94115.22;4980000;28;20031;-80
2023/08/06 08:24:23;;;;;;;8.27;2.83;;;;;;;22.26;61.80;94093.50;4982677;28;20451;-81
2023/08/06 08:26:52;;;;;;;5.60;3.05;;;;;;;22.78;60.64;94125.94;4981534;28;20099;-80
2023/08/06 08:29:19;;;;;;;13.23;3.50;;;;;;;22.92;60.64;94123.34;4981597;28;20126;-80
2023/08/06 08:31:44;;;;;;;4.28;3.03;;;;;;;22.63;59.66;94114.22;4981088;28;20039;-81
2023/08/06 08:34:10;;;;;;;3.20;2.50;;;;;;;22.68;59.76;94125.47;4979092;28;20084;-81
2023/08/06 08:36:36;;;;;;;4.93;2.80;;;;;;;22.65;59.35;94101.91;4978857;28;20039;-81
2023/08/06 08:39:01;;;;;;;4.82;3.53;;;;;;;22.65;60.23;94085.69;4982175;28;20046;-80
2023/08/06 08:41:31;;;;;;;6.57;3.65;;;;;;;22.84;58.68;94114.41;4978408;28;20070;-81
2023/08/06 08:43:58;;;;;;;7.50;3.25;;;;;;;22.81;58.48;94117.09;4978721;28;20043;-80
2023/08/06 08:46:26;;;;;;;7.90;3.40;;;;;;;23.01;58.83;94121.88;4977388;28;20042;-80
2023/08/06 08:48:51;;;;;;;5.75;3.03;;;;;;;22.94;57.86;94100.19;4980544;28;20031;-80
2023/08/06 08:51:17;;;;;;;3.50;2.95;;;;;;;22.99;57.70;94099.81;4975005;28;20045;-80
2023/08/06 08:53:44;;;;;;;6.25;3.42;;;;;;;22.91;58.13;94082.00;4977398;28;20188;-80
2023/08/06 08:56:12;;;;;;;9.93;3.17;;;;;;;22.98;58.29;94090.16;4980287;28;20094;-81
2023/08/06 08:58:38;;;;;;;4.10;3.20;;;;;;;23.11;57.94;94100.66;4979792;28;20555;-80
2023/08/06 09:01:06;;;;;;;3.65;3.08;;;;;;;23.08;57.95;94107.59;4979113;28;20063;-80
2023/08/06 09:03:32;;;;;;;7.38;3.45;;;;;;;22.88;58.42;94092.81;4975691;28;20035;-81
2023/08/06 09:05:59;;;;;;;6.30;3.20;;;;;;;22.78;58.31;94077.31;4975349;28;20095;-78
2023/08/06 09:08:29;;;;;;;8.18;3.45;;;;;;;22.84;58.33;94090.06;4968110;28;20038;-78
2023/08/06 09:10:56;;;;;;;4.43;3.58;;;;;;;23.18;58.62;94098.00;4967750;28;20531;-78
2023/08/06 09:13:23;;;;;;;3.95;3.10;;;;;;;23.08;58.29;94067.03;4968945;28;20065;-77
2023/08/06 09:15:50;;;;;;;5.47;3.00;;;;;;;23.01;58.01;94064.31;4969641;28;20160;-78
2023/08/06 09:18:26;;;;;;;4.38;3.42;;;;;;;22.71;57.67;94013.13;4967989;28;20479;-78
2023/08/06 09:20:52;;;;;;;3.28;2.92;;;;;;;23.30;57.68;94084.13;4969503;28;20034;-78
2023/08/06 09:23:17;;;;;;;5.03;3.10;;;;;;;23.15;57.17;94058.19;4972172;28;20034;-78
2023/08/06 09:25:43;;;;;;;4.32;2.80;;;;;;;23.26;56.59;94067.91;4972614;28;20552;-77
2023/08/06 09:28:08;;;;;;;3.45;2.90;;;;;;;23.25;55.93;94052.06;4972690;28;20447;-78
2023/08/06 09:30:37;;;;;;;4.57;3.40;;;;;;;23.62;56.76;94074.25;4970988;28;20058;-78
2023/08/06 09:33:03;;;;;;;8.10;2.70;;;;;;;23.66;55.70;94075.00;4972589;28;20110;-79
2023/08/06 09:35:30;;;;;;;3.58;2.80;;;;;;;23.64;54.42;94079.28;4972553;28;20134;-77
2023/08/06 09:37:55;;;;;;;4.53;3.10;;;;;;;23.37;54.78;94016.53;4971341;28;20030;-77
2023/08/06 09:40:25;;;;;;;7.55;2.85;;;;;;;23.57;54.62;94033.25;4971820;28;20035;-78
2023/08/06 09:42:51;;;;;;;5.65;2.78;;;;;;;23.80;54.39;94044.50;4970446;28;20455;-78
2023/08/06 09:45:16;;;;;;;4.28;3.08;;;;;;;23.96;54.18;94063.84;4970899;28;20096;-78
2023/08/06 09:47:42;;;;;;;4.88;3.22;;;;;;;23.99;52.93;94075.88;4970826;28;20035;-78
2023/08/06 09:50:18;;;;;;;3.25;2.33;;;;;;;23.99;52.29;94063.09;4970620;28;20041;-78
2023/08/06 09:52:44;;;;;;;6.32;2.95;;;;;;;23.94;51.79;94031.00;4972272;28;20026;-78
2023/08/06 09:55:12;;;;;;;8.02;2.80;;;;;;;24.15;51.35;94066.22;4970435;28;20623;-78
2023/08/06 09:57:38;;;;;;;4.60;2.63;;;;;;;24.33;50.69;94089.88;4971689;28;20039;-78
2023/08/06 10:00:04;;;;;;;3.53;2.78;;;;;;;24.41;50.88;94073.19;4970112;28;20491;-77
2023/08/06 10:02:33;;;;;;;3.58;2.55;;;;;;;24.45;49.19;94035.28;4969924;28;20416;-78
2023/08/06 10:04:59;;;;;;;6.30;2.80;;;;;;;24.84;49.80;94063.09;4971795;28;20507;-78
2023/08/06 10:07:25;;;;;;;2.78;2.38;;;;;;;24.87;48.24;94058.84;4972587;28;20115;-78
2023/08/06 10:09:50;;;;;;;2.60;2.40;;;;;;;24.81;48.48;94052.25;4970261;28;20571;-77
2023/08/06 10:12:19;;;;;;;3.08;2.50;;;;;;;24.69;48.35;94067.00;4969626;28;20091;-78
2023/08/06 10:14:47;;;;;;;4.78;2.28;;;;;;;24.68;46.56;94086.38;4970130;28;20512;-78
2023/08/06 10:17:13;;;;;;;3.08;2.25;;;;;;;24.27;46.99;94045.34;4988940;28;20058;-80
2023/08/06 10:19:38;;;;;;;4.95;2.50;;;;;;;24.27;47.84;94050.75;4994924;28;20081;-81
2023/08/06 10:22:16;;;;;;;3.83;2.30;;;;;;;24.47;48.05;94077.09;5036501;22;20063;-81
2023/08/06 10:24:55;;;;;;;7.53;2.25;;;;;;;24.56;47.95;94027.91;5096051;28;20043;-81
2023/08/06 10:27:29;;;;;;;3.22;2.50;;;;;;;25.23;47.06;94073.88;5096799;28;20043;-81
2023/08/06 10:29:55;;;;;;;5.30;2.17;;;;;;;25.23;46.83;94073.88;5096731;28;20040;-82
2023/08/06 10:32:21;;;;;;;5.90;2.17;;;;;;;25.06;47.21;94044.88;5097197;28;20039;-82
2023/08/06 10:34:57;;;;;;;5.90;2.13;;;;;;;24.95;46.73;94038.69;5097247;28;20111;-81
2023/08/06 10:37:34;;;;;;;3.88;2.30;;;;;;;25.04;47.60;94096.00;5096435;28;20035;-82
2023/08/06 10:39:59;;;;;;;2.97;2.40;;;;;;;25.06;48.02;94088.25;5096754;28;20040;-82
2023/08/06 10:42:29;;;;;;;4.10;2.40;;;;;;;25.32;47.63;94081.59;5095695;28;20039;-81
2023/08/06 10:45:17;;;;;;;4.47;2.20;;;;;;;25.35;47.59;94097.09;5095164;28;20036;-81
2023/08/06 10:47:43;;;;;;;3.35;1.77;;;;;;;25.21;47.44;94108.75;5096590;28;20035;-81
2023/08/06 10:50:13;;;;;;;3.47;2.28;;;;;;;25.05;46.95;94110.34;5096589;28;20036;-82
2023/08/06 10:52:39;;;;;;;3.75;2.25;;;;;;;24.98;47.69;94113.84;5096016;28;20070;-81
2023/08/06 10:55:04;;;;;;;3.83;2.45;;;;;;;24.80;47.34;94102.22;5095800;28;20036;-82
2023/08/06 10:57:30;;;;;;;5.07;2.40;;;;;;;24.75;47.73;94105.34;5095124;28;20028;-82
2023/08/06 10:59:55;;;;;;;4.03;2.42;;;;;;;24.67;47.89;94101.84;5095813;28;20042;-82
2023/08/06 11:02:21;;;;;;;2.70;2.28;;;;;;;24.41;48.31;94097.59;5096855;28;20046;-81
2023/08/06 11:04:48;;;;;;;3.50;2.65;;;;;;;24.46;49.16;94121.63;5093856;28;20021;-81
2023/08/06 11:07:13;;;;;;;4.85;2.88;;;;;;;24.58;49.13;94123.16;5095038;28;20104;-82
2023/08/06 11:09:39;;;;;;;5.25;2.90;;;;;;;24.34;49.12;94107.66;5096540;28;20028;-82
2023/08/06 11:12:11;;;;;;;4.13;2.83;;;;;;;24.36;48.57;94086.38;5096203;28;20431;-81
2023/08/06 11:14:36;;;;;;;7.90;3.03;;;;;;;24.63;47.53;94103.81;5095679;28;20063;-81
2023/08/06 11:17:02;;;;;;;4.25;3.20;;;;;;;24.81;47.98;94155.28;5094978;28;20031;-81
2023/08/06 11:19:28;;;;;;;4.53;3.35;;;;;;;24.29;48.57;94043.78;5096809;28;20035;-82
2023/08/06 11:21:54;;;;;;;6.18;3.17;;;;;;;24.42;49.40;94120.81;5094047;28;20059;-86
2023/08/06 11:24:20;;;;;;;7.68;3.47;;;;;;;24.43;50.86;94114.25;5095654;28;20024;-86
2023/08/06 11:26:45;;;;;;;5.90;3.10;;;;;;;24.21;55.78;94137.84;5092670;28;20024;-85
2023/08/06 11:29:11;;;;;;;4.95;3.63;;;;;;;23.76;56.24;94127.63;5093253;28;20165;-86
2023/08/06 11:31:36;;;;;;;9.20;3.97;;;;;;;23.46;61.19;94136.00;5096515;28;20024;-85
2023/08/06 11:34:02;;;;;;;6.95;3.40;;;;;;;22.62;60.04;94113.47;5099962;28;20038;-85